CheckWX is a tool to help pilots better visualize weather data.  It is not intended as a substitute for an official pre-flight weather briefing.

08:43:35 UTC

KPPF METAR
Tri-City Airport
Parsons, Kansas, USA
Current

52 mins ago

KPPF 180752Z AUTO 17005KT 10SM CLR 12/09 A2989 RMK AO2 SLP116 T01170089
Observed
Oct-18 @ 07:52 UTC
Wind
  • 170° at 5 KTS
Visibility
10 SM
Flight Rules
VFR
Cloud Levels
  • Clear skies
Temperature
12°C / 54°F
Dewpoint
C / 48°F
Humidity
82%
Altimeter
29.89" Hg
Pressure
1012.22 hPa
Previous

2 hours ago

KPPF 180652Z AUTO 18005KT 10SM CLR 12/09 A2988 RMK AO2 SLP114 T01170089
Observed
Oct-18 @ 06:52 UTC
Wind
  • 180° at 5 KTS
Visibility
10 SM
Flight Rules
VFR
Cloud Levels
  • Clear skies
Temperature
12°C / 54°F
Dewpoint
C / 48°F
Humidity
82%
Altimeter
29.88" Hg
Pressure
1011.82 hPa
Previous

3 hours ago

KPPF 180552Z AUTO 18006KT 10SM CLR 12/09 A2988 RMK AO2 SLP114 T01220089 10161 20122 402170033 58003
Observed
Oct-18 @ 05:52 UTC
Wind
  • 180° at 6 KTS
Visibility
10 SM
Flight Rules
VFR
Cloud Levels
  • Clear skies
Temperature
12°C / 54°F
Dewpoint
C / 48°F
Humidity
82%
Altimeter
29.88" Hg
Pressure
1011.82 hPa